createdAt,value
2022-08-31T00:00:59.058Z,18.33
2022-08-31T00:06:03.576Z,16.63
2022-08-31T00:11:10.214Z,16.86
2022-08-31T00:16:13.702Z,16.68
2022-08-31T00:21:16.601Z,15.91
2022-08-31T00:26:21.241Z,15.36
2022-08-31T00:31:24.456Z,15.24
2022-08-31T00:36:28.080Z,15.65
2022-08-31T00:41:35.438Z,16.73
2022-08-31T00:46:40.820Z,17.38
2022-08-31T00:51:49.462Z,17.43
2022-08-31T00:56:54.505Z,17.29
2022-08-31T01:01:57.233Z,16.86
2022-08-31T01:07:00.394Z,16.37
2022-08-31T01:12:07.887Z,16.08
2022-08-31T01:17:10.798Z,15.48
2022-08-31T01:22:20.209Z,15.72
2022-08-31T01:27:28.909Z,15.88
2022-08-31T01:32:31.414Z,15.81
2022-08-31T01:37:34.273Z,15.46
2022-08-31T01:42:40.297Z,15.65
2022-08-31T01:47:42.783Z,15.69
2022-08-31T01:52:45.233Z,15.50
2022-08-31T01:57:49.274Z,15.62
2022-08-31T02:02:51.970Z,16.36
2022-08-31T02:07:54.765Z,16.41
2022-08-31T02:12:58.724Z,16.42
2022-08-31T02:18:01.402Z,16.54
2022-08-31T02:23:05.411Z,16.32
2022-08-31T02:28:12.699Z,16.18
2022-08-31T02:33:15.641Z,16.01
2022-08-31T02:38:18.580Z,16.53
2022-08-31T02:43:24.684Z,15.69
2022-08-31T02:48:27.553Z,15.24
2022-08-31T02:53:30.105Z,15.04
2022-08-31T02:58:33.934Z,15.50
2022-08-31T03:03:37.814Z,15.03
2022-08-31T03:08:42.284Z,14.99
2022-08-31T03:13:46.546Z,14.69
2022-08-31T03:18:49.505Z,14.88
2022-08-31T03:23:52.010Z,14.74
2022-08-31T03:28:56.259Z,14.79
2022-08-31T03:33:59.157Z,14.60
2022-08-31T03:39:01.676Z,14.58
2022-08-31T03:44:06.247Z,14.20
2022-08-31T03:49:10.277Z,14.42
2022-08-31T03:54:13.152Z,15.07
2022-08-31T03:59:17.400Z,15.79
2022-08-31T04:04:19.919Z,16.10
2022-08-31T04:09:22.433Z,15.94
2022-08-31T04:14:26.286Z,15.69
2022-08-31T04:19:31.296Z,15.04
2022-08-31T04:24:34.250Z,14.94
2022-08-31T04:29:38.109Z,15.76
2022-08-31T04:34:40.604Z,16.14
2022-08-31T04:39:51.013Z,16.75
2022-08-31T04:44:56.413Z,17.14
2022-08-31T04:49:58.854Z,17.25
2022-08-31T04:55:01.375Z,17.50
2022-08-31T05:00:07.431Z,17.31
2022-08-31T05:05:10.649Z,17.43
2022-08-31T05:10:13.330Z,17.06
2022-08-31T05:15:18.234Z,17.29
2022-08-31T05:20:20.764Z,17.51
2022-08-31T05:25:23.444Z,17.60
2022-08-31T05:30:28.435Z,17.61
2022-08-31T05:35:31.306Z,17.85
2022-08-31T05:40:33.873Z,17.94
2022-08-31T05:45:37.796Z,17.71
2022-08-31T05:50:40.292Z,17.89
2022-08-31T05:55:43.191Z,18.08
2022-08-31T06:00:47.178Z,17.87
2022-08-31T06:05:50.548Z,17.95
2022-08-31T06:10:53.011Z,17.46
2022-08-31T06:15:59.221Z,17.88
2022-08-31T06:21:03.151Z,18.17
2022-08-31T06:26:08.180Z,18.32
2022-08-31T06:31:16.267Z,18.57
2022-08-31T06:36:22.254Z,18.12
2022-08-31T06:41:27.308Z,18.29
2022-08-31T06:46:34.495Z,18.15
2022-08-31T06:51:38.340Z,18.19
2022-08-31T06:56:41.321Z,17.93
2022-08-31T07:01:45.254Z,17.73
2022-08-31T07:06:47.812Z,18.55
2022-08-31T07:11:52.210Z,18.90
2022-08-31T07:16:58.099Z,19.15
2022-08-31T07:22:02.740Z,19.47
2022-08-31T07:27:10.050Z,19.20
2022-08-31T07:32:17.438Z,19.15
2022-08-31T07:37:37.375Z,19.54
2022-08-31T07:42:43.471Z,19.48
2022-08-31T07:47:48.025Z,19.56
2022-08-31T07:52:54.472Z,19.50
2022-08-31T07:57:57.750Z,19.94
2022-08-31T08:03:07.380Z,20.27
2022-08-31T08:08:13.890Z,19.95
2022-08-31T08:13:19.311Z,20.60
2022-08-31T08:18:26.387Z,20.73
2022-08-31T08:23:29.191Z,21.01
2022-08-31T08:28:40.828Z,21.39
2022-08-31T08:33:46.456Z,21.06
2022-08-31T08:38:51.744Z,21.00
2022-08-31T08:43:57.365Z,21.25
2022-08-31T08:49:09.435Z,20.75
2022-08-31T08:54:15.850Z,21.47
2022-08-31T08:59:20.368Z,22.11
2022-08-31T09:04:41.406Z,22.02
2022-08-31T09:09:54.008Z,22.27
2022-08-31T09:15:18.931Z,22.15
2022-08-31T09:20:24.162Z,22.36
2022-08-31T09:25:33.382Z,22.61
2022-08-31T09:30:41.508Z,22.48
2022-08-31T09:35:45.641Z,22.56
2022-08-31T09:40:51.960Z,22.87
2022-08-31T09:45:59.041Z,22.45
2022-08-31T09:51:04.634Z,22.67
2022-08-31T09:56:17.060Z,23.22
2022-08-31T10:01:23.462Z,22.87
2022-08-31T10:06:46.513Z,23.38
2022-08-31T10:11:51.938Z,22.70
2022-08-31T10:17:02.602Z,23.07
2022-08-31T10:22:12.653Z,23.22
2022-08-31T10:27:21.268Z,23.27
2022-08-31T10:32:31.404Z,23.14
2022-08-31T10:37:44.745Z,24.21
2022-08-31T10:42:59.441Z,26.27
2022-08-31T10:48:05.259Z,26.05
2022-08-31T10:53:22.419Z,28.17
2022-08-31T10:58:36.521Z,26.97
2022-08-31T11:04:01.733Z,25.90
2022-08-31T11:09:13.070Z,26.29
2022-08-31T11:14:45.327Z,25.20
2022-08-31T11:20:23.908Z,25.81
2022-08-31T11:25:58.535Z,25.47
2022-08-31T11:31:07.325Z,24.68
2022-08-31T11:36:10.278Z,25.41
2022-08-31T11:41:34.295Z,25.05
2022-08-31T11:47:05.186Z,24.12
2022-08-31T11:52:29.446Z,24.55
2022-08-31T11:57:59.519Z,23.85
2022-08-31T12:03:09.802Z,23.35
2022-08-31T12:08:15.336Z,23.29
2022-08-31T12:13:45.844Z,24.33
2022-08-31T12:19:08.205Z,23.68
2022-08-31T12:24:25.858Z,23.36
2022-08-31T12:29:32.067Z,23.69
2022-08-31T12:34:38.711Z,23.91
2022-08-31T12:39:41.172Z,23.06
2022-08-31T12:44:51.829Z,23.43
2022-08-31T12:50:09.205Z,24.13
2022-08-31T12:55:23.527Z,24.11
2022-08-31T13:00:30.706Z,23.63
2022-08-31T13:05:35.607Z,23.25
2022-08-31T13:10:39.821Z,24.32
2022-08-31T13:15:45.184Z,24.32
2022-08-31T13:20:48.494Z,24.44
2022-08-31T13:26:01.175Z,23.97
2022-08-31T13:31:09.211Z,23.17
2022-08-31T13:36:32.252Z,23.40
2022-08-31T13:41:38.145Z,23.47
2022-08-31T13:46:51.052Z,23.37
2022-08-31T13:51:53.998Z,22.96
2022-08-31T13:56:57.650Z,22.90
2022-08-31T14:02:05.298Z,22.64
2022-08-31T14:07:08.267Z,22.85
2022-08-31T14:12:10.890Z,22.85
2022-08-31T14:17:16.597Z,22.60
2022-08-31T14:22:29.719Z,23.11
2022-08-31T14:27:34.462Z,22.73
2022-08-31T14:32:38.499Z,23.32
2022-08-31T14:37:42.235Z,23.19
2022-08-31T14:42:45.313Z,22.80
2022-08-31T14:47:52.429Z,23.12
2022-08-31T14:52:55.628Z,22.87
2022-08-31T14:58:02.792Z,22.60
2022-08-31T15:03:08.230Z,22.72
2022-08-31T15:08:11.692Z,22.92
2022-08-31T15:13:14.379Z,23.30
2022-08-31T15:18:24.335Z,22.95
2022-08-31T15:23:28.522Z,22.68
2022-08-31T15:28:31.574Z,23.02
2022-08-31T15:33:36.991Z,23.11
2022-08-31T15:38:41.232Z,22.90
2022-08-31T15:43:47.356Z,23.21
2022-08-31T15:48:51.649Z,23.01
2022-08-31T15:54:20.729Z,23.34
2022-08-31T15:59:22.980Z,23.00
2022-08-31T16:04:27.065Z,22.89
2022-08-31T16:09:29.929Z,23.00
2022-08-31T16:14:33.454Z,23.08
2022-08-31T16:19:43.043Z,22.75
2022-08-31T16:24:47.163Z,22.76
2022-08-31T16:29:51.765Z,23.05
2022-08-31T16:34:56.821Z,23.34
2022-08-31T16:39:59.629Z,22.76
2022-08-31T16:45:03.009Z,22.55
2022-08-31T16:50:10.354Z,22.85
2022-08-31T16:55:16.153Z,22.70
2022-08-31T17:00:19.540Z,22.73
2022-08-31T17:05:35.287Z,22.33
2022-08-31T17:10:38.940Z,22.72
2022-08-31T17:15:41.652Z,22.77
2022-08-31T17:20:48.272Z,22.80
2022-08-31T17:25:50.853Z,23.00
2022-08-31T17:30:57.491Z,23.06
2022-08-31T17:36:02.268Z,23.04
2022-08-31T17:41:06.553Z,23.02
2022-08-31T17:46:12.589Z,22.94
2022-08-31T17:51:27.200Z,22.68
2022-08-31T17:56:34.903Z,22.45
2022-08-31T18:01:38.439Z,22.54
2022-08-31T18:06:46.854Z,22.52
2022-08-31T18:11:49.888Z,22.53
2022-08-31T18:16:54.908Z,22.39
2022-08-31T18:21:59.837Z,22.30
2022-08-31T18:27:03.971Z,22.31
2022-08-31T18:32:10.924Z,22.50
2022-08-31T18:37:16.481Z,22.40
2022-08-31T18:42:42.929Z,22.27
2022-08-31T18:48:07.136Z,22.04
2022-08-31T18:53:15.100Z,21.92
2022-08-31T18:58:18.456Z,21.94
2022-08-31T19:03:21.472Z,21.69
2022-08-31T19:08:26.430Z,21.72
2022-08-31T19:13:31.323Z,21.61
2022-08-31T19:18:37.209Z,21.21
2022-08-31T19:23:43.461Z,21.07
2022-08-31T19:28:48.945Z,20.80
2022-08-31T19:33:57.113Z,21.05
2022-08-31T19:39:01.628Z,20.89
2022-08-31T19:44:08.771Z,21.07
2022-08-31T19:49:17.336Z,20.81
2022-08-31T19:54:26.139Z,20.23
2022-08-31T19:59:30.168Z,20.28
2022-08-31T20:04:36.071Z,20.03
2022-08-31T20:09:40.491Z,19.93
2022-08-31T20:14:44.698Z,19.50
2022-08-31T20:19:50.012Z,18.80
2022-08-31T20:24:55.658Z,18.30
2022-08-31T20:29:58.542Z,17.84
2022-08-31T20:35:02.376Z,17.87
2022-08-31T20:40:16.034Z,17.57
2022-08-31T20:45:18.821Z,17.38
2022-08-31T20:50:21.346Z,17.23
2022-08-31T20:55:26.961Z,17.00
2022-08-31T21:00:30.261Z,16.87
2022-08-31T21:05:38.915Z,16.90
2022-08-31T21:10:43.666Z,17.91
2022-08-31T21:15:47.608Z,18.60
2022-08-31T21:20:51.541Z,17.89
2022-08-31T21:25:57.391Z,17.44
2022-08-31T21:31:18.391Z,16.69
2022-08-31T21:36:32.858Z,16.45
2022-08-31T21:41:38.123Z,17.32
2022-08-31T21:46:41.678Z,17.88
2022-08-31T21:51:48.617Z,17.00
2022-08-31T21:56:55.610Z,16.38
2022-08-31T22:02:00.434Z,16.21
2022-08-31T22:07:03.565Z,16.35
2022-08-31T22:12:09.737Z,15.65
2022-08-31T22:17:13.057Z,15.81
2022-08-31T22:22:18.017Z,15.23
2022-08-31T22:27:22.033Z,15.57
2022-08-31T22:32:25.390Z,15.51
2022-08-31T22:37:35.874Z,15.63
2022-08-31T22:42:50.116Z,15.52
2022-08-31T22:48:02.615Z,15.43
2022-08-31T22:53:38.103Z,15.86
2022-08-31T22:59:00.861Z,15.86
2022-08-31T23:09:40.796Z,14.78
2022-08-31T23:14:52.897Z,14.92
2022-08-31T23:20:03.360Z,15.57
2022-08-31T23:25:16.649Z,14.16
2022-08-31T23:30:29.890Z,15.08
2022-08-31T23:35:43.623Z,14.26
2022-08-31T23:40:53.568Z,14.56
2022-08-31T23:46:02.908Z,14.88
2022-08-31T23:51:10.395Z,14.58
2022-08-31T23:56:14.493Z,13.86
